createdAt,value
2022-09-15T00:01:03.797Z,8.18
2022-09-15T00:05:19.844Z,8.27
2022-09-15T00:09:35.959Z,6.78
2022-09-15T00:13:52.574Z,7.32
2022-09-15T00:18:08.756Z,8.30
2022-09-15T00:22:25.599Z,8.10
2022-09-15T00:26:41.601Z,10.07
2022-09-15T00:30:57.702Z,10.15
2022-09-15T00:35:13.880Z,10.05
2022-09-15T00:39:29.827Z,8.10
2022-09-15T00:43:45.718Z,9.63
2022-09-15T00:48:01.897Z,8.55
2022-09-15T00:52:22.128Z,8.90
2022-09-15T00:56:38.692Z,9.35
2022-09-15T01:01:00.844Z,8.85
2022-09-15T01:05:20.471Z,8.63
2022-09-15T01:09:41.595Z,12.02
2022-09-15T01:13:57.598Z,9.77
2022-09-15T01:18:27.475Z,11.30
2022-09-15T01:22:49.246Z,10.55
2022-09-15T01:27:41.967Z,12.27
2022-09-15T01:32:24.361Z,9.38
2022-09-15T01:36:47.295Z,8.15
2022-09-15T01:41:11.946Z,10.55
2022-09-15T01:45:32.732Z,13.93
2022-09-15T01:49:56.989Z,11.50
2022-09-15T01:54:14.922Z,10.50
2022-09-15T01:58:31.066Z,8.13
2022-09-15T02:03:00.685Z,9.15
2022-09-15T02:07:21.948Z,18.15
2022-09-15T02:11:40.898Z,10.82
2022-09-15T02:15:59.362Z,9.98
2022-09-15T02:20:25.724Z,9.30
2022-09-15T02:24:46.822Z,8.88
2022-09-15T02:29:08.455Z,14.45
2022-09-15T02:33:26.300Z,7.70
2022-09-15T02:37:42.380Z,10.57
2022-09-15T02:41:59.820Z,11.07
2022-09-15T02:46:21.375Z,9.13
2022-09-15T02:50:38.380Z,9.85
2022-09-15T02:54:54.423Z,8.45
2022-09-15T02:59:10.343Z,9.63
2022-09-15T03:03:26.332Z,10.07
2022-09-15T03:07:42.342Z,10.30
2022-09-15T03:11:59.014Z,11.75
2022-09-15T03:16:17.375Z,11.27
2022-09-15T03:20:33.320Z,9.90
2022-09-15T03:24:49.345Z,8.85
2022-09-15T03:29:05.319Z,13.25
2022-09-15T03:33:22.693Z,11.00
2022-09-15T03:37:38.645Z,12.02
2022-09-15T03:41:54.565Z,13.20
2022-09-15T03:46:11.837Z,7.65
2022-09-15T03:50:27.828Z,7.57
2022-09-15T03:54:43.906Z,9.77
2022-09-15T03:59:01.851Z,8.77
2022-09-15T04:03:17.735Z,7.72
2022-09-15T04:07:33.713Z,9.25
2022-09-15T04:11:49.616Z,6.03
2022-09-15T04:16:08.505Z,7.40
2022-09-15T04:20:24.408Z,6.50
2022-09-15T04:24:40.358Z,6.53
2022-09-15T04:28:58.674Z,7.65
2022-09-15T04:33:16.537Z,5.78
2022-09-15T04:37:33.532Z,9.48
2022-09-15T04:41:49.427Z,9.93
2022-09-15T04:46:05.506Z,4.50
2022-09-15T04:50:21.429Z,6.15
2022-09-15T04:54:37.498Z,6.87
2022-09-15T04:58:59.549Z,4.43
2022-09-15T05:03:18.530Z,5.18
2022-09-15T05:07:34.507Z,2.95
2022-09-15T05:11:50.503Z,6.07
2022-09-15T05:16:12.224Z,6.03
2022-09-15T05:20:28.262Z,7.70
2022-09-15T05:24:44.163Z,6.43
2022-09-15T05:29:00.388Z,4.12
2022-09-15T05:33:16.478Z,4.90
2022-09-15T05:37:33.297Z,2.92
2022-09-15T05:41:49.443Z,9.38
2022-09-15T05:46:07.676Z,5.12
2022-09-15T05:50:23.684Z,7.37
2022-09-15T05:54:39.893Z,3.12
2022-09-15T05:58:55.837Z,6.37
2022-09-15T06:03:15.767Z,5.37
2022-09-15T06:07:31.954Z,5.47
2022-09-15T06:11:47.864Z,6.57
2022-09-15T06:16:06.651Z,4.03
2022-09-15T06:20:22.626Z,5.30
2022-09-15T06:24:38.550Z,4.28
2022-09-15T06:28:59.382Z,5.10
2022-09-15T06:33:16.018Z,4.32
2022-09-15T06:37:32.378Z,6.18
2022-09-15T06:42:01.800Z,6.20
2022-09-15T06:46:25.968Z,7.03
2022-09-15T06:50:41.938Z,5.72
2022-09-15T06:54:57.838Z,4.85
2022-09-15T06:59:15.687Z,4.87
2022-09-15T07:03:31.890Z,5.68
2022-09-15T07:07:47.865Z,5.80
2022-09-15T07:12:04.512Z,6.55
2022-09-15T07:16:21.796Z,9.50
2022-09-15T07:20:39.442Z,9.48
2022-09-15T07:24:55.494Z,7.97
2022-09-15T07:29:11.420Z,6.47
2022-09-15T07:33:27.551Z,4.20
2022-09-15T07:37:44.773Z,7.20
2022-09-15T07:42:00.751Z,4.72
2022-09-15T07:46:17.404Z,4.93
2022-09-15T07:50:33.358Z,4.57
2022-09-15T07:54:49.307Z,4.75
2022-09-15T07:59:05.182Z,3.85
2022-09-15T08:03:21.162Z,5.85
2022-09-15T08:07:37.048Z,8.02
2022-09-15T08:11:53.080Z,5.00
2022-09-15T08:16:11.253Z,3.92
2022-09-15T08:20:27.190Z,6.22
2022-09-15T08:24:43.283Z,6.78
2022-09-15T08:28:59.602Z,3.47
2022-09-15T08:33:15.557Z,5.45
2022-09-15T08:37:31.778Z,5.37
2022-09-15T08:41:49.868Z,5.25
2022-09-15T08:46:10.387Z,2.00
2022-09-15T08:50:40.625Z,2.92
2022-09-15T08:55:01.262Z,3.85
2022-09-15T08:59:18.375Z,3.62
2022-09-15T09:04:00.479Z,4.70
2022-09-15T09:08:50.394Z,3.60
2022-09-15T09:13:24.474Z,5.20
2022-09-15T09:18:13.170Z,3.50
2022-09-15T09:22:34.136Z,1.60
2022-09-15T09:26:51.819Z,6.60
2022-09-15T09:31:15.360Z,2.08
2022-09-15T09:35:43.303Z,1.45
2022-09-15T09:39:59.175Z,3.58
2022-09-15T09:44:15.565Z,4.75
2022-09-15T09:48:31.683Z,1.62
2022-09-15T09:52:47.651Z,1.58
2022-09-15T09:57:23.209Z,0.77
2022-09-15T10:01:39.854Z,2.78
2022-09-15T10:06:04.163Z,1.00
2022-09-15T10:10:25.941Z,1.25
2022-09-15T10:14:43.137Z,0.67
2022-09-15T10:18:59.669Z,3.08
2022-09-15T10:23:18.982Z,2.05
2022-09-15T10:27:36.297Z,3.58
2022-09-15T10:31:52.231Z,3.30
2022-09-15T10:36:18.860Z,2.33
2022-09-15T10:40:37.633Z,1.23
2022-09-15T10:45:07.457Z,1.55
2022-09-15T10:49:45.491Z,2.37
2022-09-15T10:54:08.558Z,3.33
2022-09-15T10:58:29.289Z,3.12
2022-09-15T11:02:57.954Z,3.42
2022-09-15T11:07:23.961Z,1.83
2022-09-15T11:11:49.069Z,2.95
2022-09-15T11:16:30.203Z,2.85
2022-09-15T11:21:11.352Z,4.72
2022-09-15T11:25:40.657Z,3.40
2022-09-15T11:30:15.701Z,1.98
2022-09-15T11:34:47.746Z,1.50
2022-09-15T11:39:19.489Z,1.37
2022-09-15T11:44:02.265Z,1.90
2022-09-15T11:48:33.726Z,4.25
2022-09-15T11:53:02.865Z,3.10
2022-09-15T11:57:28.427Z,2.25
2022-09-15T12:02:13.499Z,1.27
2022-09-15T12:06:47.500Z,3.50
2022-09-15T12:11:08.102Z,2.10
2022-09-15T12:15:27.575Z,4.35
2022-09-15T12:19:55.765Z,1.42
2022-09-15T12:24:23.705Z,1.70
2022-09-15T12:29:02.854Z,3.50
2022-09-15T12:33:54.929Z,1.98
2022-09-15T12:38:14.322Z,1.85
2022-09-15T12:42:31.795Z,2.50
2022-09-15T12:46:55.741Z,3.85
2022-09-15T12:51:12.445Z,3.65
2022-09-15T12:55:34.546Z,3.90
2022-09-15T13:00:10.578Z,1.50
2022-09-15T13:04:54.196Z,3.00
2022-09-15T13:09:26.755Z,3.95
2022-09-15T13:14:04.424Z,2.28
2022-09-15T13:18:21.896Z,3.90
2022-09-15T13:22:44.170Z,3.37
2022-09-15T13:27:01.652Z,4.60
2022-09-15T13:31:26.797Z,4.10
2022-09-15T13:35:52.552Z,1.45
2022-09-15T13:40:45.711Z,2.80
2022-09-15T13:45:29.507Z,3.28
2022-09-15T13:49:50.026Z,2.55
2022-09-15T13:54:17.207Z,2.90
2022-09-15T14:03:18.648Z,2.65
2022-09-15T14:07:34.725Z,3.28
2022-09-15T14:11:53.019Z,3.30
2022-09-15T14:16:34.155Z,3.53
2022-09-15T14:21:05.203Z,2.80
2022-09-15T14:25:22.043Z,1.95
2022-09-15T14:29:42.896Z,3.30
2022-09-15T14:33:59.348Z,3.00
2022-09-15T14:38:23.388Z,3.00
2022-09-15T14:42:42.211Z,2.83
2022-09-15T14:46:58.338Z,2.10
2022-09-15T14:51:25.402Z,2.53
2022-09-15T14:56:08.829Z,4.22
2022-09-15T15:00:28.884Z,6.75
2022-09-15T15:04:50.628Z,5.32
2022-09-15T15:09:27.836Z,5.55
2022-09-15T15:13:45.741Z,4.75
2022-09-15T15:18:04.842Z,5.87
2022-09-15T15:22:22.167Z,6.37
2022-09-15T15:26:40.660Z,7.30
2022-09-15T15:31:08.102Z,10.98
2022-09-15T15:35:24.894Z,7.07
2022-09-15T15:39:40.799Z,3.28
2022-09-15T15:44:08.304Z,7.07
2022-09-15T15:48:26.004Z,7.32
2022-09-15T15:52:43.763Z,5.28
2022-09-15T15:57:21.601Z,3.67
2022-09-15T16:01:37.597Z,5.03
2022-09-15T16:05:57.806Z,4.25
2022-09-15T16:10:19.529Z,3.60
2022-09-15T16:14:36.003Z,3.47
2022-09-15T16:18:52.549Z,6.72
2022-09-15T16:23:12.810Z,5.05
2022-09-15T16:27:30.386Z,3.67
2022-09-15T16:31:46.473Z,5.45
2022-09-15T16:36:08.805Z,3.30
2022-09-15T16:40:24.844Z,5.63
2022-09-15T16:44:40.884Z,5.70
2022-09-15T16:48:57.451Z,6.97
2022-09-15T16:53:15.225Z,8.73
2022-09-15T16:57:31.227Z,4.57
2022-09-15T17:01:47.283Z,5.60
2022-09-15T17:06:03.749Z,7.45
2022-09-15T17:10:19.862Z,4.82
2022-09-15T17:14:37.089Z,2.85
2022-09-15T17:18:53.436Z,7.47
2022-09-15T17:23:26.641Z,9.10
2022-09-15T17:32:01.505Z,6.25
2022-09-15T17:36:18.867Z,3.65
2022-09-15T17:40:35.843Z,4.47
2022-09-15T17:44:52.770Z,6.62
2022-09-15T17:49:09.454Z,6.18
2022-09-15T17:53:28.731Z,3.33
2022-09-15T17:57:45.160Z,3.97
2022-09-15T18:02:01.183Z,3.95
2022-09-15T18:09:01.314Z,5.45
2022-09-15T18:13:21.902Z,6.15
2022-09-15T18:17:38.625Z,7.62
2022-09-15T18:21:54.730Z,5.62
2022-09-15T18:26:11.094Z,2.80
2022-09-15T18:30:31.179Z,3.85
2022-09-15T18:34:47.921Z,2.20
2022-09-15T18:39:05.225Z,5.80
2022-09-15T18:43:22.717Z,3.33
2022-09-15T18:47:38.798Z,5.20
2022-09-15T18:51:54.936Z,5.60
2022-09-15T18:56:15.509Z,4.12
2022-09-15T19:00:31.927Z,4.90
2022-09-15T19:04:47.911Z,10.15
2022-09-15T19:09:04.050Z,6.00
2022-09-15T19:13:19.956Z,4.97
2022-09-15T19:17:36.216Z,4.22
2022-09-15T19:21:52.193Z,7.93
2022-09-15T19:26:17.912Z,9.20
2022-09-15T19:30:34.986Z,14.65
2022-09-15T19:34:51.193Z,6.10
2022-09-15T19:39:07.318Z,4.62
2022-09-15T19:43:23.224Z,4.95
2022-09-15T19:47:39.867Z,3.42
2022-09-15T19:51:56.057Z,6.05
2022-09-15T19:56:22.310Z,15.40
2022-09-15T20:00:38.594Z,12.98
2022-09-15T20:04:55.199Z,8.70
2022-09-15T20:09:11.455Z,8.15
2022-09-15T20:13:27.384Z,11.90
2022-09-15T20:17:43.426Z,6.62
2022-09-15T20:21:59.343Z,6.57
2022-09-15T20:26:16.698Z,7.60
2022-09-15T20:30:32.640Z,7.97
2022-09-15T20:34:51.004Z,12.05
2022-09-15T20:39:10.936Z,6.75
2022-09-15T20:43:27.484Z,7.65
2022-09-15T20:47:43.367Z,12.88
2022-09-15T20:51:59.533Z,14.55
2022-09-15T20:56:20.209Z,7.25
2022-09-15T21:00:39.123Z,11.40
2022-09-15T21:04:55.534Z,9.48
2022-09-15T21:09:11.560Z,9.25
2022-09-15T21:13:33.656Z,7.90
2022-09-15T21:17:49.952Z,8.57
2022-09-15T21:22:06.255Z,8.10
2022-09-15T21:26:27.114Z,13.00
2022-09-15T21:30:43.110Z,7.18
2022-09-15T21:35:00.220Z,5.00
2022-09-15T21:39:16.185Z,7.07
2022-09-15T21:43:35.294Z,7.87
2022-09-15T21:47:51.159Z,8.20
2022-09-15T21:52:07.113Z,5.12
2022-09-15T21:56:23.559Z,6.65
2022-09-15T22:00:40.440Z,8.82
2022-09-15T22:04:56.989Z,10.30
2022-09-15T22:09:18.319Z,8.88
2022-09-15T22:13:36.518Z,11.02
2022-09-15T22:17:52.519Z,6.68
2022-09-15T22:22:08.968Z,8.40
2022-09-15T22:26:27.663Z,6.22
2022-09-15T22:30:43.679Z,3.03
2022-09-15T22:34:59.577Z,4.55
2022-09-15T22:39:15.564Z,8.70
2022-09-15T22:43:31.542Z,4.10
2022-09-15T22:47:47.411Z,3.70
2022-09-15T22:52:03.490Z,4.35
2022-09-15T22:56:23.309Z,4.78
2022-09-15T23:00:39.678Z,3.03
2022-09-15T23:04:55.698Z,3.45
2022-09-15T23:09:12.282Z,3.45
2022-09-15T23:13:28.247Z,3.75
2022-09-15T23:17:44.218Z,5.45
2022-09-15T23:22:00.170Z,3.35
2022-09-15T23:26:18.525Z,4.15
2022-09-15T23:30:34.601Z,4.90
2022-09-15T23:34:50.688Z,4.82
2022-09-15T23:39:06.858Z,6.20
2022-09-15T23:43:23.235Z,5.90
2022-09-15T23:47:39.143Z,12.75
2022-09-15T23:51:55.118Z,5.18
2022-09-15T23:56:11.138Z,3.58
